createdAt,value
2018-09-05T00:01:15.126Z,9.43
2018-09-05T00:03:44.659Z,9.77
2018-09-05T00:06:14.234Z,9.83
2018-09-05T00:08:43.743Z,9.57
2018-09-05T00:11:13.236Z,10.43
2018-09-05T00:13:42.680Z,10.10
2018-09-05T00:16:12.119Z,10.20
2018-09-05T00:18:41.636Z,8.87
2018-09-05T00:21:11.570Z,9.90
2018-09-05T00:23:41.040Z,9.73
2018-09-05T00:26:10.493Z,9.33
2018-09-05T00:28:39.984Z,9.53
2018-09-05T00:31:11.283Z,9.87
2018-09-05T00:33:41.239Z,9.27
2018-09-05T00:36:10.696Z,9.60
2018-09-05T00:38:40.161Z,10.27
2018-09-05T00:41:09.587Z,10.83
2018-09-05T00:43:39.072Z,10.20
2018-09-05T00:46:08.523Z,10.63
2018-09-05T00:48:37.992Z,10.57
2018-09-05T00:51:07.462Z,11.43
2018-09-05T00:53:36.894Z,10.30
2018-09-05T00:56:06.638Z,10.73
2018-09-05T00:58:36.120Z,11.23
2018-09-05T01:01:05.579Z,11.43
2018-09-05T01:03:35.082Z,10.83
2018-09-05T01:06:04.522Z,11.53
2018-09-05T01:08:34.052Z,11.80
2018-09-05T01:11:03.437Z,10.60
2018-09-05T01:13:32.935Z,11.03
2018-09-05T01:16:02.386Z,10.40
2018-09-05T01:18:31.827Z,11.60
2018-09-05T01:21:01.496Z,12.00
2018-09-05T01:23:31.038Z,11.50
2018-09-05T01:26:00.473Z,10.90
2018-09-05T01:28:29.958Z,11.13
2018-09-05T01:30:59.363Z,10.83
2018-09-05T01:33:28.827Z,10.73
2018-09-05T01:36:03.244Z,11.10
2018-09-05T01:38:32.744Z,11.33
2018-09-05T01:41:02.159Z,10.80
2018-09-05T01:43:31.648Z,11.03
2018-09-05T01:46:01.151Z,11.17
2018-09-05T01:48:30.650Z,12.03
2018-09-05T01:51:00.095Z,12.17
2018-09-05T01:53:29.584Z,11.47
2018-09-05T01:55:58.987Z,12.43
2018-09-05T01:58:28.477Z,11.53
2018-09-05T02:00:57.455Z,11.43
2018-09-05T02:03:26.431Z,12.10
2018-09-05T02:05:55.369Z,12.27
2018-09-05T02:08:24.420Z,12.67
2018-09-05T02:10:53.369Z,12.53
2018-09-05T02:13:22.910Z,13.67
2018-09-05T02:15:51.832Z,11.83
2018-09-05T02:18:20.856Z,10.67
2018-09-05T02:20:49.796Z,13.07
2018-09-05T02:23:18.837Z,11.70
2018-09-05T02:25:47.872Z,11.87
2018-09-05T02:28:16.894Z,12.73
2018-09-05T02:30:45.866Z,12.40
2018-09-05T02:33:14.877Z,13.40
2018-09-05T02:35:43.869Z,13.67
2018-09-05T02:38:12.937Z,19.17
2018-09-05T02:40:41.913Z,11.97
2018-09-05T02:43:10.967Z,12.57
2018-09-05T02:45:39.998Z,13.53
2018-09-05T02:48:08.997Z,12.27
2018-09-05T02:50:37.977Z,12.87
2018-09-05T02:53:06.992Z,13.50
2018-09-05T02:55:41.095Z,12.37
2018-09-05T02:58:10.074Z,12.50
2018-09-05T03:00:39.077Z,12.17
2018-09-05T03:03:08.053Z,16.10
2018-09-05T03:05:37.029Z,15.27
2018-09-05T03:08:05.970Z,17.37
2018-09-05T03:10:34.981Z,18.80
2018-09-05T03:13:03.911Z,20.00
2018-09-05T03:15:33.033Z,17.10
2018-09-05T03:18:01.965Z,21.17
2018-09-05T03:20:30.961Z,17.27
2018-09-05T03:22:59.901Z,19.50
2018-09-05T03:25:28.889Z,18.47
2018-09-05T03:27:57.865Z,17.43
2018-09-05T03:30:26.840Z,18.97
2018-09-05T03:32:55.877Z,17.83
2018-09-05T03:35:24.863Z,16.63
2018-09-05T03:37:53.785Z,18.67
2018-09-05T03:40:22.761Z,18.00
2018-09-05T03:42:51.682Z,17.60
2018-09-05T03:45:20.691Z,17.30
2018-09-05T03:47:49.656Z,16.87
2018-09-05T03:50:18.629Z,17.53
2018-09-05T03:52:47.551Z,16.20
2018-09-05T03:55:16.526Z,16.80
2018-09-05T03:57:45.466Z,16.33
2018-09-05T04:00:14.618Z,15.90
2018-09-05T04:02:43.549Z,16.20
2018-09-05T04:05:12.718Z,15.90
2018-09-05T04:07:41.673Z,16.93
2018-09-05T04:10:10.681Z,17.47
2018-09-05T04:12:40.478Z,15.87
2018-09-05T04:15:10.369Z,16.23
2018-09-05T04:17:39.332Z,19.07
2018-09-05T04:20:08.870Z,20.37
2018-09-05T04:22:37.857Z,18.47
2018-09-05T04:25:06.900Z,21.37
2018-09-05T04:27:35.825Z,18.17
2018-09-05T04:30:06.060Z,17.97
2018-09-05T04:32:35.003Z,18.40
2018-09-05T04:35:04.889Z,20.33
2018-09-05T04:37:33.868Z,25.13
2018-09-05T04:40:03.833Z,24.73
2018-09-05T04:42:32.856Z,18.97
2018-09-05T04:45:01.842Z,20.30
2018-09-05T04:47:30.781Z,20.50
2018-09-05T04:49:59.733Z,15.30
2018-09-05T04:52:28.678Z,15.03
2018-09-05T04:54:57.629Z,15.93
2018-09-05T04:57:26.622Z,16.40
2018-09-05T04:59:55.540Z,17.80
2018-09-05T05:02:24.595Z,17.73
2018-09-05T05:04:53.677Z,18.40
2018-09-05T05:07:22.676Z,15.93
2018-09-05T05:09:51.669Z,26.13
2018-09-05T05:12:20.709Z,23.80
2018-09-05T05:14:50.356Z,43.13
2018-09-05T05:17:19.364Z,27.30
2018-09-05T05:19:48.323Z,15.00
2018-09-05T05:22:17.319Z,17.37
2018-09-05T05:24:46.278Z,36.80
2018-09-05T05:27:15.256Z,27.40
2018-09-05T05:29:44.248Z,18.10
2018-09-05T05:32:13.219Z,18.33
2018-09-05T05:34:42.189Z,18.33
2018-09-05T05:37:11.189Z,18.30
2018-09-05T05:39:40.125Z,15.90
2018-09-05T05:42:09.101Z,18.00
2018-09-05T05:44:38.049Z,22.40
2018-09-05T05:47:07.054Z,12.63
2018-09-05T05:49:36.084Z,21.83
2018-09-05T05:52:05.142Z,18.50
2018-09-05T05:54:34.074Z,23.10
2018-09-05T05:57:03.061Z,24.63
2018-09-05T05:59:31.965Z,15.60
2018-09-05T06:02:00.962Z,17.60
2018-09-05T06:04:30.013Z,16.13
2018-09-05T06:06:58.984Z,13.17
2018-09-05T06:09:27.928Z,13.27
2018-09-05T06:11:57.031Z,13.77
2018-09-05T06:14:26.059Z,12.40
2018-09-05T06:16:55.036Z,12.93
2018-09-05T06:19:24.021Z,36.53
2018-09-05T06:21:53.130Z,12.87
2018-09-05T06:24:22.113Z,13.80
2018-09-05T06:26:51.141Z,13.83
2018-09-05T06:29:20.642Z,14.23
2018-09-05T06:31:49.821Z,14.63
2018-09-05T06:34:19.040Z,12.73
2018-09-05T06:36:48.034Z,11.77
2018-09-05T06:39:17.025Z,12.90
2018-09-05T06:41:46.161Z,13.47
2018-09-05T06:44:15.290Z,14.13
2018-09-05T06:46:44.301Z,13.27
2018-09-05T06:49:13.341Z,13.47
2018-09-05T06:51:42.385Z,13.30
2018-09-05T06:54:11.319Z,12.00
2018-09-05T06:56:40.335Z,12.57
2018-09-05T06:59:09.565Z,11.67
2018-09-05T07:01:38.576Z,12.13
2018-09-05T07:04:07.590Z,13.00
2018-09-05T07:06:36.648Z,13.63
2018-09-05T07:09:10.095Z,13.37
2018-09-05T07:11:39.661Z,13.20
2018-09-05T07:14:08.744Z,15.50
2018-09-05T07:16:37.952Z,14.00
2018-09-05T07:19:08.509Z,14.53
2018-09-05T07:21:37.730Z,14.37
2018-09-05T07:24:07.227Z,12.80
2018-09-05T07:26:36.557Z,12.70
2018-09-05T07:29:05.688Z,13.67
2018-09-05T07:31:34.686Z,14.30
2018-09-05T07:34:03.658Z,14.83
2018-09-05T07:36:32.643Z,13.70
2018-09-05T07:39:01.655Z,13.50
2018-09-05T07:41:30.654Z,11.30
2018-09-05T07:43:59.613Z,15.60
2018-09-05T07:46:28.627Z,15.10
2018-09-05T07:48:57.634Z,13.33
2018-09-05T07:51:26.627Z,14.17
2018-09-05T07:53:55.617Z,13.93
2018-09-05T07:56:24.653Z,13.97
2018-09-05T07:58:53.769Z,17.60
2018-09-05T08:01:22.769Z,15.63
2018-09-05T08:03:51.759Z,16.30
2018-09-05T08:06:20.869Z,15.37
2018-09-05T08:08:49.976Z,14.33
2018-09-05T08:11:19.122Z,16.40
2018-09-05T08:13:48.122Z,15.80
2018-09-05T08:16:17.143Z,16.03
2018-09-05T08:18:46.090Z,17.13
2018-09-05T08:21:15.201Z,16.67
2018-09-05T08:23:44.229Z,15.37
2018-09-05T08:26:13.254Z,17.30
2018-09-05T08:28:42.290Z,18.07
2018-09-05T08:31:11.277Z,17.23
2018-09-05T08:33:40.263Z,15.90
2018-09-05T08:36:09.454Z,16.57
2018-09-05T08:38:38.348Z,15.37
2018-09-05T08:41:08.649Z,16.80
2018-09-05T08:43:38.075Z,14.67
2018-09-05T08:46:07.149Z,17.17
2018-09-05T08:48:36.167Z,14.53
2018-09-05T08:51:05.393Z,14.90
2018-09-05T08:53:34.353Z,16.20
2018-09-05T08:56:03.414Z,15.07
2018-09-05T08:58:32.313Z,16.17
2018-09-05T09:01:01.248Z,17.07
2018-09-05T09:03:30.216Z,17.57
2018-09-05T09:05:59.392Z,16.67
2018-09-05T09:08:28.348Z,16.47
2018-09-05T09:10:57.320Z,17.53
2018-09-05T09:13:26.225Z,15.63
2018-09-05T09:15:55.245Z,18.50
2018-09-05T09:18:24.456Z,19.30
2018-09-05T09:20:53.404Z,13.73
2018-09-05T09:23:22.393Z,12.47
2018-09-05T09:25:51.321Z,12.70
2018-09-05T09:28:20.351Z,12.87
2018-09-05T09:30:49.278Z,10.93
2018-09-05T09:33:18.253Z,12.03
2018-09-05T09:35:47.185Z,11.90
2018-09-05T09:38:16.180Z,13.20
2018-09-05T09:40:45.112Z,14.47
2018-09-05T09:43:14.068Z,13.47
2018-09-05T09:45:43.113Z,13.50
2018-09-05T09:48:12.066Z,12.67
2018-09-05T09:50:40.985Z,14.20
2018-09-05T09:53:10.006Z,13.67
2018-09-05T09:55:38.960Z,12.23
2018-09-05T09:58:07.924Z,13.83
2018-09-05T10:00:42.008Z,17.00
2018-09-05T10:03:16.303Z,14.07
2018-09-05T10:05:50.266Z,13.80
2018-09-05T10:08:24.332Z,13.27
2018-09-05T10:10:58.475Z,14.80
2018-09-05T10:13:32.478Z,11.97
2018-09-05T10:16:06.693Z,14.27
2018-09-05T10:18:38.505Z,13.10
2018-09-05T10:21:07.508Z,16.27
2018-09-05T10:23:36.449Z,12.60
2018-09-05T10:26:05.393Z,13.37
2018-09-05T10:28:34.443Z,14.73
2018-09-05T10:31:03.412Z,14.93
2018-09-05T10:33:32.364Z,15.07
2018-09-05T10:36:01.294Z,15.70
2018-09-05T10:38:30.317Z,15.83
2018-09-05T10:40:59.275Z,15.57
2018-09-05T10:43:28.236Z,14.83
2018-09-05T10:45:57.204Z,15.03
2018-09-05T10:48:26.190Z,14.60
2018-09-05T10:50:55.121Z,13.93
2018-09-05T10:53:24.114Z,12.13
2018-09-05T10:55:53.056Z,13.27
2018-09-05T10:58:22.027Z,12.33
2018-09-05T11:00:51.034Z,14.30
2018-09-05T11:03:20.023Z,12.17
2018-09-05T11:05:48.977Z,11.43
2018-09-05T11:08:18.031Z,12.03
2018-09-05T11:10:47.006Z,13.10
2018-09-05T11:13:16.229Z,13.17
2018-09-05T11:15:45.220Z,13.00
2018-09-05T11:18:14.249Z,11.93
2018-09-05T11:20:43.175Z,12.60
2018-09-05T11:23:12.153Z,12.10
2018-09-05T11:25:41.100Z,12.77
2018-09-05T11:28:10.166Z,13.20
2018-09-05T11:30:39.123Z,11.47
2018-09-05T11:33:08.142Z,12.63
2018-09-05T11:35:37.104Z,12.20
2018-09-05T11:38:06.072Z,11.97
2018-09-05T11:40:35.084Z,12.43
2018-09-05T11:43:04.288Z,12.40
2018-09-05T11:45:33.232Z,12.13
2018-09-05T11:48:02.197Z,12.03
2018-09-05T11:50:31.124Z,11.13
2018-09-05T11:53:00.110Z,13.10
2018-09-05T11:55:29.041Z,13.13
2018-09-05T11:57:57.965Z,13.37
2018-09-05T12:00:26.982Z,12.83
2018-09-05T12:02:55.913Z,12.40
2018-09-05T12:05:24.874Z,14.10
2018-09-05T12:07:53.801Z,12.00
2018-09-05T12:10:22.796Z,12.73
2018-09-05T12:12:51.707Z,12.10
2018-09-05T12:15:20.670Z,12.43
2018-09-05T12:17:49.610Z,11.40
2018-09-05T12:20:18.568Z,10.60
2018-09-05T12:22:47.489Z,10.30
2018-09-05T12:25:16.533Z,10.93
2018-09-05T12:27:45.520Z,10.20
2018-09-05T12:30:14.472Z,10.03
2018-09-05T12:32:43.453Z,10.90
2018-09-05T12:35:12.389Z,9.80
2018-09-05T12:37:41.314Z,11.13
2018-09-05T12:40:10.269Z,11.47
2018-09-05T12:42:39.309Z,10.73
2018-09-05T12:45:08.256Z,11.03
2018-09-05T12:47:37.190Z,11.17
2018-09-05T12:50:06.244Z,11.37
2018-09-05T12:52:35.153Z,10.37
2018-09-05T12:55:05.026Z,11.43
2018-09-05T12:57:33.932Z,10.13
2018-09-05T13:00:03.761Z,10.73
2018-09-05T13:02:32.709Z,10.17
2018-09-05T13:05:01.768Z,10.23
2018-09-05T13:07:31.204Z,10.43
2018-09-05T13:10:00.204Z,11.03
2018-09-05T13:12:29.224Z,10.73
2018-09-05T13:14:58.229Z,9.70
2018-09-05T13:17:27.146Z,10.60
2018-09-05T13:19:56.105Z,10.53
2018-09-05T13:22:25.051Z,11.07
2018-09-05T13:24:54.016Z,11.30
2018-09-05T13:27:22.950Z,10.20
2018-09-05T13:29:52.048Z,11.33
2018-09-05T13:32:21.017Z,10.57
2018-09-05T13:34:49.962Z,10.47
2018-09-05T13:37:18.932Z,9.53
2018-09-05T13:39:47.931Z,10.13
2018-09-05T13:42:17.013Z,9.27
2018-09-05T13:44:46.013Z,11.23
2018-09-05T13:47:14.985Z,11.77
2018-09-05T13:49:43.970Z,10.90
2018-09-05T13:52:17.462Z,10.83
2018-09-05T13:54:46.513Z,9.70
2018-09-05T13:57:15.477Z,11.17
2018-09-05T13:59:44.749Z,10.03
2018-09-05T14:02:13.692Z,10.30
2018-09-05T14:04:42.652Z,11.43
2018-09-05T14:07:11.570Z,11.57
2018-09-05T14:09:40.563Z,9.30
2018-09-05T14:12:09.469Z,10.53
2018-09-05T14:14:38.560Z,10.17
2018-09-05T14:17:07.534Z,10.47
2018-09-05T14:19:36.469Z,9.87
2018-09-05T14:22:05.398Z,9.83
2018-09-05T14:24:34.432Z,10.37
2018-09-05T14:27:03.339Z,9.60
2018-09-05T14:29:32.306Z,9.20
2018-09-05T14:32:01.222Z,9.90
2018-09-05T14:34:30.165Z,9.37
2018-09-05T14:36:59.083Z,10.03
2018-09-05T14:39:28.053Z,9.27
2018-09-05T14:41:57.006Z,9.87
2018-09-05T14:44:26.053Z,9.70
2018-09-05T14:46:54.966Z,9.10
2018-09-05T14:49:24.017Z,9.53
2018-09-05T14:51:52.920Z,9.37
2018-09-05T14:54:21.971Z,9.33
2018-09-05T14:56:50.949Z,9.50
2018-09-05T14:59:20.009Z,8.97
2018-09-05T15:01:48.973Z,8.90
2018-09-05T15:04:17.988Z,9.17
2018-09-05T15:06:47.105Z,9.27
2018-09-05T15:09:16.112Z,9.13
2018-09-05T15:11:45.143Z,9.10
2018-09-05T15:14:14.071Z,9.17
2018-09-05T15:16:43.045Z,9.77
2018-09-05T15:19:11.961Z,8.97
2018-09-05T15:21:40.993Z,9.27
2018-09-05T15:24:09.925Z,8.53
2018-09-05T15:26:38.884Z,8.93
2018-09-05T15:29:07.801Z,8.73
2018-09-05T15:31:36.734Z,8.37
2018-09-05T15:34:05.829Z,8.30
2018-09-05T15:36:34.770Z,9.10
2018-09-05T15:39:04.492Z,8.00
2018-09-05T15:41:33.457Z,10.07
2018-09-05T15:44:02.477Z,10.05
2018-09-05T15:46:31.416Z,9.60
2018-09-05T15:49:00.394Z,9.83
2018-09-05T15:51:29.406Z,10.60
2018-09-05T15:53:58.487Z,9.50
2018-09-05T15:56:27.493Z,9.47
2018-09-05T15:58:56.472Z,9.30
2018-09-05T16:01:25.476Z,9.53
2018-09-05T16:03:54.494Z,9.13
2018-09-05T16:06:23.529Z,8.93
2018-09-05T16:08:52.430Z,9.27
2018-09-05T16:11:21.529Z,9.37
2018-09-05T16:13:50.918Z,8.27
2018-09-05T16:16:19.972Z,8.77
2018-09-05T16:18:48.889Z,9.23
2018-09-05T16:21:17.828Z,9.27
2018-09-05T16:23:46.744Z,9.83
2018-09-05T16:26:15.734Z,8.47
2018-09-05T16:28:44.652Z,8.50
2018-09-05T16:31:13.649Z,8.43
2018-09-05T16:33:42.598Z,8.13
2018-09-05T16:36:11.692Z,8.57
2018-09-05T16:38:40.569Z,9.13
2018-09-05T16:41:09.573Z,8.23
2018-09-05T16:43:38.485Z,8.17
2018-09-05T16:46:08.101Z,8.60
2018-09-05T16:48:37.023Z,8.67
2018-09-05T16:51:06.619Z,8.57
2018-09-05T16:53:35.608Z,7.83
2018-09-05T16:56:04.553Z,8.63
2018-09-05T16:58:33.519Z,8.13
2018-09-05T17:01:02.563Z,7.87
2018-09-05T17:03:31.500Z,8.37
2018-09-05T17:06:00.447Z,8.07
2018-09-05T17:08:29.358Z,8.17
2018-09-05T17:10:58.286Z,9.43
2018-09-05T17:13:27.224Z,8.37
2018-09-05T17:15:56.222Z,8.60
2018-09-05T17:18:25.152Z,8.50
2018-09-05T17:20:54.189Z,9.77
2018-09-05T17:23:23.151Z,8.33
2018-09-05T17:25:52.136Z,8.33
2018-09-05T17:28:21.071Z,9.33
2018-09-05T17:30:50.248Z,9.10
2018-09-05T17:33:19.193Z,9.47
2018-09-05T17:35:48.174Z,8.47
2018-09-05T17:38:18.087Z,9.33
2018-09-05T17:40:47.198Z,8.77
2018-09-05T17:43:16.111Z,9.40
2018-09-05T17:45:45.070Z,9.83
2018-09-05T17:48:13.986Z,8.77
2018-09-05T17:50:42.923Z,9.60
2018-09-05T17:53:11.831Z,8.47
2018-09-05T17:55:40.800Z,8.93
2018-09-05T17:58:09.705Z,8.97
2018-09-05T18:00:38.769Z,8.50
2018-09-05T18:03:07.773Z,8.23
2018-09-05T18:05:36.733Z,8.27
2018-09-05T18:08:05.744Z,9.23
2018-09-05T18:10:34.688Z,8.30
2018-09-05T18:13:03.624Z,8.43
2018-09-05T18:15:32.692Z,8.70
2018-09-05T18:18:01.605Z,9.00
2018-09-05T18:20:30.574Z,9.20
2018-09-05T18:22:59.485Z,9.10
2018-09-05T18:25:28.469Z,9.93
2018-09-05T18:27:57.386Z,8.97
2018-09-05T18:30:26.329Z,9.60
2018-09-05T18:32:55.248Z,9.80
2018-09-05T18:35:25.353Z,9.63
2018-09-05T18:37:54.273Z,8.77
2018-09-05T18:40:23.253Z,9.50
2018-09-05T18:42:52.169Z,8.77
2018-09-05T18:45:21.173Z,8.73
2018-09-05T18:47:50.129Z,9.73
2018-09-05T18:50:19.140Z,9.60
2018-09-05T18:52:49.264Z,9.00
2018-09-05T18:55:18.238Z,10.50
2018-09-05T18:57:47.157Z,10.70
2018-09-05T19:00:16.102Z,10.27
2018-09-05T19:02:45.137Z,9.83
2018-09-05T19:05:14.073Z,10.47
2018-09-05T19:07:42.993Z,9.83
2018-09-05T19:10:11.973Z,10.13
2018-09-05T19:12:40.879Z,9.40
2018-09-05T19:15:10.009Z,10.20
2018-09-05T19:17:38.954Z,10.60
2018-09-05T19:20:07.893Z,10.70
2018-09-05T19:22:36.863Z,10.43
2018-09-05T19:25:06.245Z,10.37
2018-09-05T19:27:35.390Z,10.43
2018-09-05T19:30:04.439Z,11.17
2018-09-05T19:32:33.429Z,10.10
2018-09-05T19:35:02.395Z,10.37
2018-09-05T19:37:31.329Z,10.87
2018-09-05T19:40:00.309Z,11.07
2018-09-05T19:42:29.286Z,10.87
2018-09-05T19:44:58.213Z,11.73
2018-09-05T19:47:27.264Z,10.80
2018-09-05T19:49:56.365Z,10.80
2018-09-05T19:52:25.372Z,11.73
2018-09-05T19:54:54.465Z,11.87
2018-09-05T19:57:23.490Z,11.93
2018-09-05T19:59:52.471Z,12.23
2018-09-05T20:02:21.538Z,11.97
2018-09-05T20:04:50.592Z,12.20
2018-09-05T20:07:19.592Z,11.90
2018-09-05T20:09:48.668Z,11.73
2018-09-05T20:12:17.756Z,11.80
2018-09-05T20:14:46.709Z,12.10
2018-09-05T20:17:15.829Z,12.37
2018-09-05T20:19:44.801Z,12.10
2018-09-05T20:22:13.800Z,11.90
2018-09-05T20:24:42.842Z,12.77
2018-09-05T20:27:11.891Z,12.53
2018-09-05T20:29:40.821Z,12.80
2018-09-05T20:32:09.833Z,12.27
2018-09-05T20:34:38.826Z,12.53
2018-09-05T20:37:08.733Z,12.60
2018-09-05T20:39:37.681Z,12.53
2018-09-05T20:42:07.014Z,12.10
2018-09-05T20:44:35.965Z,12.90
2018-09-05T20:47:05.261Z,12.30
2018-09-05T20:49:34.264Z,12.47
2018-09-05T20:52:03.247Z,12.30
2018-09-05T20:54:32.178Z,13.97
2018-09-05T20:57:01.384Z,12.50
2018-09-05T20:59:30.337Z,13.17
2018-09-05T21:01:59.409Z,12.87
2018-09-05T21:04:28.359Z,11.60
2018-09-05T21:06:58.210Z,13.07
2018-09-05T21:09:27.151Z,11.93
2018-09-05T21:11:56.206Z,12.10
2018-09-05T21:14:25.222Z,12.33
2018-09-05T21:16:54.168Z,13.50
2018-09-05T21:19:23.110Z,12.57
2018-09-05T21:21:52.065Z,13.17
2018-09-05T21:24:21.112Z,12.83
2018-09-05T21:26:50.114Z,13.57
2018-09-05T21:29:19.080Z,14.67
2018-09-05T21:31:48.065Z,13.17
2018-09-05T21:34:16.988Z,12.53
2018-09-05T21:36:45.969Z,12.17
2018-09-05T21:39:14.986Z,12.67
2018-09-05T21:41:43.928Z,12.60
2018-09-05T21:44:12.892Z,12.47
2018-09-05T21:46:42.735Z,13.87
2018-09-05T21:49:11.705Z,13.77
2018-09-05T21:51:40.653Z,13.07
2018-09-05T21:54:09.608Z,13.53
2018-09-05T21:56:38.609Z,13.93
2018-09-05T21:59:07.628Z,12.43
2018-09-05T22:01:36.613Z,13.00
2018-09-05T22:04:05.578Z,12.30
2018-09-05T22:06:34.532Z,12.33
2018-09-05T22:09:03.794Z,12.97
2018-09-05T22:11:32.795Z,13.37
2018-09-05T22:14:01.730Z,14.03
2018-09-05T22:16:30.758Z,13.43
2018-09-05T22:18:59.713Z,12.70
2018-09-05T22:21:28.645Z,12.87
2018-09-05T22:23:57.614Z,13.60
2018-09-05T22:26:26.556Z,14.27
2018-09-05T22:28:55.528Z,13.33
2018-09-05T22:31:24.534Z,14.13
2018-09-05T22:33:53.483Z,13.13
2018-09-05T22:36:22.453Z,13.53
2018-09-05T22:38:51.436Z,15.63
2018-09-05T22:41:20.384Z,14.97
2018-09-05T22:44:00.537Z,14.37
2018-09-05T22:46:40.455Z,14.13
2018-09-05T22:50:59.879Z,15.00
2018-09-05T22:54:45.147Z,14.27
2018-09-05T22:57:35.330Z,13.20
2018-09-05T23:01:19.289Z,14.17
2018-09-05T23:04:05.645Z,13.30
2018-09-05T23:09:03.950Z,14.30
2018-09-05T23:11:58.813Z,12.67
2018-09-05T23:14:39.997Z,12.30
2018-09-05T23:17:20.465Z,13.73
2018-09-05T23:20:31.730Z,15.97
2018-09-05T23:23:11.432Z,14.03
2018-09-05T23:25:40.422Z,15.57
2018-09-05T23:28:09.354Z,15.20
2018-09-05T23:30:38.309Z,14.33
2018-09-05T23:33:07.253Z,14.70
2018-09-05T23:35:36.220Z,14.80
2018-09-05T23:38:05.156Z,14.03
2018-09-05T23:40:34.145Z,13.23
2018-09-05T23:43:03.078Z,14.27
2018-09-05T23:45:32.046Z,15.20
2018-09-05T23:48:01.075Z,14.50
2018-09-05T23:50:30.039Z,13.93
2018-09-05T23:52:59.018Z,14.50
2018-09-05T23:55:27.990Z,13.90
2018-09-05T23:57:56.931Z,14.97
